sensor_id;sensor_type;location;lat;lon;timestamp;temperature;humidity
52787;DHT22;38661;53.152;5.846;2022-07-01T00:01:36;15.70;90.30
52787;DHT22;38661;53.152;5.846;2022-07-01T00:04:02;15.70;90.40
52787;DHT22;38661;53.152;5.846;2022-07-01T00:06:28;15.70;90.30
52787;DHT22;38661;53.152;5.846;2022-07-01T00:08:54;15.70;90.60
52787;DHT22;38661;53.152;5.846;2022-07-01T00:11:20;15.70;90.60
52787;DHT22;38661;53.152;5.846;2022-07-01T00:13:46;15.70;90.80
52787;DHT22;38661;53.152;5.846;2022-07-01T00:16:11;15.70;91.10
52787;DHT22;38661;53.152;5.846;2022-07-01T00:18:38;15.80;90.70
52787;DHT22;38661;53.152;5.846;2022-07-01T00:21:04;15.70;90.80
52787;DHT22;38661;53.152;5.846;2022-07-01T00:23:30;15.70;91.10
52787;DHT22;38661;53.152;5.846;2022-07-01T00:25:57;15.70;91.00
52787;DHT22;38661;53.152;5.846;2022-07-01T00:28:22;15.70;91.40
52787;DHT22;38661;53.152;5.846;2022-07-01T00:30:48;15.70;91.20
52787;DHT22;38661;53.152;5.846;2022-07-01T00:33:14;15.60;91.40
52787;DHT22;38661;53.152;5.846;2022-07-01T00:35:39;15.60;91.50
52787;DHT22;38661;53.152;5.846;2022-07-01T00:38:05;15.60;91.50
52787;DHT22;38661;53.152;5.846;2022-07-01T00:40:31;15.70;91.20
52787;DHT22;38661;53.152;5.846;2022-07-01T00:42:57;15.60;91.30
52787;DHT22;38661;53.152;5.846;2022-07-01T00:45:22;15.60;91.10
52787;DHT22;38661;53.152;5.846;2022-07-01T00:47:49;15.60;91.10
52787;DHT22;38661;53.152;5.846;2022-07-01T00:50:16;15.60;91.10
52787;DHT22;38661;53.152;5.846;2022-07-01T00:52:43;15.60;90.60
52787;DHT22;38661;53.152;5.846;2022-07-01T00:55:11;15.60;90.70
52787;DHT22;38661;53.152;5.846;2022-07-01T00:57:38;15.70;90.70
52787;DHT22;38661;53.152;5.846;2022-07-01T01:00:11;15.60;90.70
52787;DHT22;38661;53.152;5.846;2022-07-01T01:02:37;15.60;90.70
52787;DHT22;38661;53.152;5.846;2022-07-01T01:05:07;15.60;90.60
52787;DHT22;38661;53.152;5.846;2022-07-01T01:07:34;15.60;90.60
52787;DHT22;38661;53.152;5.846;2022-07-01T01:10:00;15.60;90.50
52787;DHT22;38661;53.152;5.846;2022-07-01T01:12:27;15.60;90.60
52787;DHT22;38661;53.152;5.846;2022-07-01T01:14:53;15.60;90.50
52787;DHT22;38661;53.152;5.846;2022-07-01T01:17:19;15.60;90.50
52787;DHT22;38661;53.152;5.846;2022-07-01T01:19:48;15.70;90.40
52787;DHT22;38661;53.152;5.846;2022-07-01T01:22:15;15.60;90.40
52787;DHT22;38661;53.152;5.846;2022-07-01T01:24:42;15.60;90.30
52787;DHT22;38661;53.152;5.846;2022-07-01T01:27:08;15.60;90.20
52787;DHT22;38661;53.152;5.846;2022-07-01T01:29:38;15.60;90.20
52787;DHT22;38661;53.152;5.846;2022-07-01T01:32:05;15.60;90.30
52787;DHT22;38661;53.152;5.846;2022-07-01T01:34:36;15.60;90.10
52787;DHT22;38661;53.152;5.846;2022-07-01T01:37:03;15.60;90.20
52787;DHT22;38661;53.152;5.846;2022-07-01T01:39:29;15.50;90.40
52787;DHT22;38661;53.152;5.846;2022-07-01T01:41:55;15.50;90.20
52787;DHT22;38661;53.152;5.846;2022-07-01T01:44:20;15.50;90.40
52787;DHT22;38661;53.152;5.846;2022-07-01T01:46:46;15.50;90.40
52787;DHT22;38661;53.152;5.846;2022-07-01T01:49:12;15.50;91.10
52787;DHT22;38661;53.152;5.846;2022-07-01T01:51:37;15.50;90.70
52787;DHT22;38661;53.152;5.846;2022-07-01T01:54:03;15.40;91.00
52787;DHT22;38661;53.152;5.846;2022-07-01T01:56:30;15.40;90.80
52787;DHT22;38661;53.152;5.846;2022-07-01T01:58:56;15.40;90.90
52787;DHT22;38661;53.152;5.846;2022-07-01T02:01:22;15.40;90.90
52787;DHT22;38661;53.152;5.846;2022-07-01T02:03:50;15.40;90.90
52787;DHT22;38661;53.152;5.846;2022-07-01T02:06:18;15.40;91.10
52787;DHT22;38661;53.152;5.846;2022-07-01T02:08:44;15.30;91.60
52787;DHT22;38661;53.152;5.846;2022-07-01T02:11:09;15.30;92.20
52787;DHT22;38661;53.152;5.846;2022-07-01T02:13:36;15.30;91.90
52787;DHT22;38661;53.152;5.846;2022-07-01T02:16:02;15.30;91.70
52787;DHT22;38661;53.152;5.846;2022-07-01T02:18:28;15.30;91.60
52787;DHT22;38661;53.152;5.846;2022-07-01T02:20:54;15.20;91.90
52787;DHT22;38661;53.152;5.846;2022-07-01T02:23:20;15.10;91.80
52787;DHT22;38661;53.152;5.846;2022-07-01T02:25:46;15.20;91.60
52787;DHT22;38661;53.152;5.846;2022-07-01T02:28:12;15.00;91.80
52787;DHT22;38661;53.152;5.846;2022-07-01T02:30:38;15.00;91.60
52787;DHT22;38661;53.152;5.846;2022-07-01T02:33:05;15.10;91.50
52787;DHT22;38661;53.152;5.846;2022-07-01T02:35:39;15.00;91.30
52787;DHT22;38661;53.152;5.846;2022-07-01T02:38:06;15.10;91.20
52787;DHT22;38661;53.152;5.846;2022-07-01T02:40:32;15.10;91.30
52787;DHT22;38661;53.152;5.846;2022-07-01T02:42:59;15.10;91.20
52787;DHT22;38661;53.152;5.846;2022-07-01T02:45:25;15.10;91.20
52787;DHT22;38661;53.152;5.846;2022-07-01T02:47:51;15.20;90.90
52787;DHT22;38661;53.152;5.846;2022-07-01T02:50:18;15.10;90.80
52787;DHT22;38661;53.152;5.846;2022-07-01T02:52:45;15.10;90.80
52787;DHT22;38661;53.152;5.846;2022-07-01T02:55:12;15.10;90.70
52787;DHT22;38661;53.152;5.846;2022-07-01T02:57:40;15.10;90.60
52787;DHT22;38661;53.152;5.846;2022-07-01T03:00:08;15.10;90.60
52787;DHT22;38661;53.152;5.846;2022-07-01T03:02:35;15.10;90.80
52787;DHT22;38661;53.152;5.846;2022-07-01T03:05:01;15.00;90.60
52787;DHT22;38661;53.152;5.846;2022-07-01T03:07:27;15.10;90.60
52787;DHT22;38661;53.152;5.846;2022-07-01T03:09:53;15.10;90.80
52787;DHT22;38661;53.152;5.846;2022-07-01T03:12:18;15.00;90.60
52787;DHT22;38661;53.152;5.846;2022-07-01T03:14:58;15.00;90.60
52787;DHT22;38661;53.152;5.846;2022-07-01T03:17:25;15.00;90.50
52787;DHT22;38661;53.152;5.846;2022-07-01T03:19:51;15.00;90.40
52787;DHT22;38661;53.152;5.846;2022-07-01T03:22:19;15.00;90.30
52787;DHT22;38661;53.152;5.846;2022-07-01T03:24:46;15.10;90.50
52787;DHT22;38661;53.152;5.846;2022-07-01T03:27:12;15.00;90.40
52787;DHT22;38661;53.152;5.846;2022-07-01T03:29:38;15.00;90.70
52787;DHT22;38661;53.152;5.846;2022-07-01T03:32:03;14.90;90.60
52787;DHT22;38661;53.152;5.846;2022-07-01T03:34:29;14.90;90.40
52787;DHT22;38661;53.152;5.846;2022-07-01T03:36:55;14.90;90.40
52787;DHT22;38661;53.152;5.846;2022-07-01T03:39:20;14.90;90.50
52787;DHT22;38661;53.152;5.846;2022-07-01T03:41:46;14.90;90.40
52787;DHT22;38661;53.152;5.846;2022-07-01T03:44:12;15.00;90.60
52787;DHT22;38661;53.152;5.846;2022-07-01T03:46:37;14.90;90.50
52787;DHT22;38661;53.152;5.846;2022-07-01T03:49:03;14.90;90.40
52787;DHT22;38661;53.152;5.846;2022-07-01T03:51:33;14.90;90.50
52787;DHT22;38661;53.152;5.846;2022-07-01T03:53:59;14.90;90.60
52787;DHT22;38661;53.152;5.846;2022-07-01T03:56:43;14.80;91.00
52787;DHT22;38661;53.152;5.846;2022-07-01T03:59:08;14.80;91.00
52787;DHT22;38661;53.152;5.846;2022-07-01T04:01:34;14.80;90.80
52787;DHT22;38661;53.152;5.846;2022-07-01T04:04:00;14.80;91.00
52787;DHT22;38661;53.152;5.846;2022-07-01T04:06:26;14.80;90.80
52787;DHT22;38661;53.152;5.846;2022-07-01T04:08:52;14.80;91.20
52787;DHT22;38661;53.152;5.846;2022-07-01T04:11:21;14.80;91.30
52787;DHT22;38661;53.152;5.846;2022-07-01T04:13:47;14.80;91.00
52787;DHT22;38661;53.152;5.846;2022-07-01T04:16:19;14.90;90.60
52787;DHT22;38661;53.152;5.846;2022-07-01T04:18:46;14.90;90.70
52787;DHT22;38661;53.152;5.846;2022-07-01T04:21:12;14.90;90.90
52787;DHT22;38661;53.152;5.846;2022-07-01T04:23:56;14.80;90.70
52787;DHT22;38661;53.152;5.846;2022-07-01T04:26:23;14.80;90.60
52787;DHT22;38661;53.152;5.846;2022-07-01T04:28:53;14.80;90.40
52787;DHT22;38661;53.152;5.846;2022-07-01T04:31:20;14.80;90.20
52787;DHT22;38661;53.152;5.846;2022-07-01T04:33:50;14.80;90.00
52787;DHT22;38661;53.152;5.846;2022-07-01T04:36:16;14.80;89.90
52787;DHT22;38661;53.152;5.846;2022-07-01T04:38:42;14.90;89.80
52787;DHT22;38661;53.152;5.846;2022-07-01T04:41:07;14.80;90.00
52787;DHT22;38661;53.152;5.846;2022-07-01T04:43:51;14.90;89.60
52787;DHT22;38661;53.152;5.846;2022-07-01T04:46:17;14.90;89.50
52787;DHT22;38661;53.152;5.846;2022-07-01T04:48:43;14.80;89.90
52787;DHT22;38661;53.152;5.846;2022-07-01T04:51:08;14.80;89.80
52787;DHT22;38661;53.152;5.846;2022-07-01T04:53:34;14.80;89.90
52787;DHT22;38661;53.152;5.846;2022-07-01T04:56:00;14.80;90.20
52787;DHT22;38661;53.152;5.846;2022-07-01T04:58:26;14.70;90.40
52787;DHT22;38661;53.152;5.846;2022-07-01T05:00:52;14.80;90.60
52787;DHT22;38661;53.152;5.846;2022-07-01T05:03:18;14.80;90.50
52787;DHT22;38661;53.152;5.846;2022-07-01T05:05:44;14.80;90.20
52787;DHT22;38661;53.152;5.846;2022-07-01T05:08:10;14.80;90.60
52787;DHT22;38661;53.152;5.846;2022-07-01T05:10:36;14.80;90.10
52787;DHT22;38661;53.152;5.846;2022-07-01T05:13:02;14.80;90.40
52787;DHT22;38661;53.152;5.846;2022-07-01T05:15:28;14.90;90.30
52787;DHT22;38661;53.152;5.846;2022-07-01T05:17:54;14.90;90.80
52787;DHT22;38661;53.152;5.846;2022-07-01T05:20:38;14.90;90.70
52787;DHT22;38661;53.152;5.846;2022-07-01T05:23:22;15.00;90.50
52787;DHT22;38661;53.152;5.846;2022-07-01T05:25:48;15.00;90.80
52787;DHT22;38661;53.152;5.846;2022-07-01T05:28:14;15.00;91.40
52787;DHT22;38661;53.152;5.846;2022-07-01T05:30:39;15.00;91.60
52787;DHT22;38661;53.152;5.846;2022-07-01T05:33:05;15.00;91.40
52787;DHT22;38661;53.152;5.846;2022-07-01T05:35:31;15.00;91.80
52787;DHT22;38661;53.152;5.846;2022-07-01T05:37:57;15.10;91.40
52787;DHT22;38661;53.152;5.846;2022-07-01T05:40:24;15.10;91.50
52787;DHT22;38661;53.152;5.846;2022-07-01T05:42:51;15.20;91.10
52787;DHT22;38661;53.152;5.846;2022-07-01T05:45:18;15.20;91.50
52787;DHT22;38661;53.152;5.846;2022-07-01T05:47:44;15.30;91.10
52787;DHT22;38661;53.152;5.846;2022-07-01T05:50:09;15.40;90.80
52787;DHT22;38661;53.152;5.846;2022-07-01T05:52:35;15.40;91.00
52787;DHT22;38661;53.152;5.846;2022-07-01T05:55:01;15.40;90.80
52787;DHT22;38661;53.152;5.846;2022-07-01T05:57:27;15.40;91.00
52787;DHT22;38661;53.152;5.846;2022-07-01T05:59:52;15.40;90.80
52787;DHT22;38661;53.152;5.846;2022-07-01T06:02:18;15.50;90.70
52787;DHT22;38661;53.152;5.846;2022-07-01T06:04:43;15.50;90.80
52787;DHT22;38661;53.152;5.846;2022-07-01T06:07:09;15.50;90.60
52787;DHT22;38661;53.152;5.846;2022-07-01T06:09:38;15.50;90.90
52787;DHT22;38661;53.152;5.846;2022-07-01T06:12:05;15.50;90.60
52787;DHT22;38661;53.152;5.846;2022-07-01T06:14:32;15.50;90.80
52787;DHT22;38661;53.152;5.846;2022-07-01T06:16:58;15.50;90.70
52787;DHT22;38661;53.152;5.846;2022-07-01T06:19:23;15.50;90.80
52787;DHT22;38661;53.152;5.846;2022-07-01T06:21:49;15.60;91.00
52787;DHT22;38661;53.152;5.846;2022-07-01T06:24:15;15.60;91.00
52787;DHT22;38661;53.152;5.846;2022-07-01T06:26:40;15.60;91.00
52787;DHT22;38661;53.152;5.846;2022-07-01T06:29:06;15.70;90.60
52787;DHT22;38661;53.152;5.846;2022-07-01T06:31:32;15.70;90.50
52787;DHT22;38661;53.152;5.846;2022-07-01T06:34:01;15.70;90.40
52787;DHT22;38661;53.152;5.846;2022-07-01T06:36:26;15.80;90.30
52787;DHT22;38661;53.152;5.846;2022-07-01T06:38:52;15.80;89.90
52787;DHT22;38661;53.152;5.846;2022-07-01T06:41:18;15.70;90.30
52787;DHT22;38661;53.152;5.846;2022-07-01T06:43:57;15.70;90.20
52787;DHT22;38661;53.152;5.846;2022-07-01T06:46:23;15.80;90.10
52787;DHT22;38661;53.152;5.846;2022-07-01T06:48:49;15.80;90.00
52787;DHT22;38661;53.152;5.846;2022-07-01T06:51:15;15.80;90.00
52787;DHT22;38661;53.152;5.846;2022-07-01T06:53:41;15.90;89.80
52787;DHT22;38661;53.152;5.846;2022-07-01T06:56:07;15.90;90.00
52787;DHT22;38661;53.152;5.846;2022-07-01T06:58:33;15.90;89.80
52787;DHT22;38661;53.152;5.846;2022-07-01T07:00:59;16.00;89.50
52787;DHT22;38661;53.152;5.846;2022-07-01T07:03:25;16.00;89.30
52787;DHT22;38661;53.152;5.846;2022-07-01T07:05:52;16.00;89.10
52787;DHT22;38661;53.152;5.846;2022-07-01T07:08:18;16.10;88.90
52787;DHT22;38661;53.152;5.846;2022-07-01T07:10:44;16.20;88.70
52787;DHT22;38661;53.152;5.846;2022-07-01T07:13:10;16.30;88.60
52787;DHT22;38661;53.152;5.846;2022-07-01T07:15:35;16.30;88.10
52787;DHT22;38661;53.152;5.846;2022-07-01T07:18:01;16.40;88.50
52787;DHT22;38661;53.152;5.846;2022-07-01T07:20:27;16.40;88.60
52787;DHT22;38661;53.152;5.846;2022-07-01T07:22:53;16.40;88.50
52787;DHT22;38661;53.152;5.846;2022-07-01T07:25:19;16.50;88.30
52787;DHT22;38661;53.152;5.846;2022-07-01T07:27:45;16.50;87.40
52787;DHT22;38661;53.152;5.846;2022-07-01T07:30:15;16.70;87.50
52787;DHT22;38661;53.152;5.846;2022-07-01T07:32:41;16.80;87.30
52787;DHT22;38661;53.152;5.846;2022-07-01T07:35:08;16.90;87.10
52787;DHT22;38661;53.152;5.846;2022-07-01T07:37:34;17.00;86.80
52787;DHT22;38661;53.152;5.846;2022-07-01T07:40:00;17.00;86.00
52787;DHT22;38661;53.152;5.846;2022-07-01T07:42:27;17.10;85.20
52787;DHT22;38661;53.152;5.846;2022-07-01T07:44:53;17.20;85.40
52787;DHT22;38661;53.152;5.846;2022-07-01T07:47:18;17.20;83.00
52787;DHT22;38661;53.152;5.846;2022-07-01T07:49:44;17.40;84.00
52787;DHT22;38661;53.152;5.846;2022-07-01T07:52:10;17.40;83.70
52787;DHT22;38661;53.152;5.846;2022-07-01T07:54:36;17.50;83.80
52787;DHT22;38661;53.152;5.846;2022-07-01T07:57:01;17.60;83.50
52787;DHT22;38661;53.152;5.846;2022-07-01T07:59:27;17.70;81.80
52787;DHT22;38661;53.152;5.846;2022-07-01T08:01:53;17.80;81.20
52787;DHT22;38661;53.152;5.846;2022-07-01T08:04:20;18.00;81.00
52787;DHT22;38661;53.152;5.846;2022-07-01T08:06:45;18.10;80.30
52787;DHT22;38661;53.152;5.846;2022-07-01T08:09:11;18.20;78.50
52787;DHT22;38661;53.152;5.846;2022-07-01T08:11:37;18.20;79.00
52787;DHT22;38661;53.152;5.846;2022-07-01T08:14:03;18.40;79.20
52787;DHT22;38661;53.152;5.846;2022-07-01T08:16:28;18.50;78.30
52787;DHT22;38661;53.152;5.846;2022-07-01T08:18:54;18.40;77.70
52787;DHT22;38661;53.152;5.846;2022-07-01T08:21:21;18.40;77.40
52787;DHT22;38661;53.152;5.846;2022-07-01T08:23:47;18.40;77.60
52787;DHT22;38661;53.152;5.846;2022-07-01T08:26:12;18.30;77.90
52787;DHT22;38661;53.152;5.846;2022-07-01T08:28:40;18.40;76.60
52787;DHT22;38661;53.152;5.846;2022-07-01T08:31:06;18.50;77.10
52787;DHT22;38661;53.152;5.846;2022-07-01T08:33:31;18.30;77.50
52787;DHT22;38661;53.152;5.846;2022-07-01T08:35:58;18.40;77.30
52787;DHT22;38661;53.152;5.846;2022-07-01T08:38:23;18.40;77.40
52787;DHT22;38661;53.152;5.846;2022-07-01T08:40:49;18.40;77.70
52787;DHT22;38661;53.152;5.846;2022-07-01T08:43:15;18.50;77.50
52787;DHT22;38661;53.152;5.846;2022-07-01T08:45:41;18.50;76.80
52787;DHT22;38661;53.152;5.846;2022-07-01T08:48:07;18.50;76.60
52787;DHT22;38661;53.152;5.846;2022-07-01T08:50:38;18.50;75.90
52787;DHT22;38661;53.152;5.846;2022-07-01T08:53:05;18.50;75.70
52787;DHT22;38661;53.152;5.846;2022-07-01T08:55:31;18.50;75.60
52787;DHT22;38661;53.152;5.846;2022-07-01T08:57:57;18.70;75.90
52787;DHT22;38661;53.152;5.846;2022-07-01T09:00:32;18.80;74.80
52787;DHT22;38661;53.152;5.846;2022-07-01T09:03:01;18.90;74.20
52787;DHT22;38661;53.152;5.846;2022-07-01T09:05:27;19.20;73.10
52787;DHT22;38661;53.152;5.846;2022-07-01T09:07:59;19.40;71.80
52787;DHT22;38661;53.152;5.846;2022-07-01T09:10:25;19.30;69.60
52787;DHT22;38661;53.152;5.846;2022-07-01T09:12:51;19.40;69.50
52787;DHT22;38661;53.152;5.846;2022-07-01T09:17:52;19.10;71.20
52787;DHT22;38661;53.152;5.846;2022-07-01T09:20:29;18.90;72.20
52787;DHT22;38661;53.152;5.846;2022-07-01T09:23:10;18.80;73.20
52787;DHT22;38661;53.152;5.846;2022-07-01T09:28:26;18.60;73.10
52787;DHT22;38661;53.152;5.846;2022-07-01T09:30:53;18.60;72.80
52787;DHT22;38661;53.152;5.846;2022-07-01T09:33:27;18.60;72.80
52787;DHT22;38661;53.152;5.846;2022-07-01T09:35:55;18.70;73.30
52787;DHT22;38661;53.152;5.846;2022-07-01T09:38:23;18.80;72.30
52787;DHT22;38661;53.152;5.846;2022-07-01T09:40:57;18.90;72.20
52787;DHT22;38661;53.152;5.846;2022-07-01T09:43:32;18.90;69.80
52787;DHT22;38661;53.152;5.846;2022-07-01T09:46:09;18.90;70.40
52787;DHT22;38661;53.152;5.846;2022-07-01T09:51:05;18.60;73.60
52787;DHT22;38661;53.152;5.846;2022-07-01T09:53:32;18.50;75.20
52787;DHT22;38661;53.152;5.846;2022-07-01T09:55:58;18.20;76.50
52787;DHT22;38661;53.152;5.846;2022-07-01T09:58:24;18.00;77.10
52787;DHT22;38661;53.152;5.846;2022-07-01T10:00:52;17.90;77.60
52787;DHT22;38661;53.152;5.846;2022-07-01T10:03:19;17.80;78.40
52787;DHT22;38661;53.152;5.846;2022-07-01T10:05:54;17.80;79.40
52787;DHT22;38661;53.152;5.846;2022-07-01T10:14:15;17.60;81.50
52787;DHT22;38661;53.152;5.846;2022-07-01T10:16:45;17.70;81.70
52787;DHT22;38661;53.152;5.846;2022-07-01T10:21:45;18.00;82.20
52787;DHT22;38661;53.152;5.846;2022-07-01T10:24:13;18.10;81.70
52787;DHT22;38661;53.152;5.846;2022-07-01T10:26:42;18.20;81.30
52787;DHT22;38661;53.152;5.846;2022-07-01T10:32:41;18.10;80.30
52787;DHT22;38661;53.152;5.846;2022-07-01T10:34:48;18.20;80.30
52787;DHT22;38661;53.152;5.846;2022-07-01T10:37:16;18.10;81.30
52787;DHT22;38661;53.152;5.846;2022-07-01T10:40:09;18.10;80.80
52787;DHT22;38661;53.152;5.846;2022-07-01T10:42:57;18.20;79.80
52787;DHT22;38661;53.152;5.846;2022-07-01T10:45:24;18.20;79.40
52787;DHT22;38661;53.152;5.846;2022-07-01T10:48:22;18.30;78.70
52787;DHT22;38661;53.152;5.846;2022-07-01T10:50:49;18.40;78.10
52787;DHT22;38661;53.152;5.846;2022-07-01T10:53:16;18.30;77.30
52787;DHT22;38661;53.152;5.846;2022-07-01T10:55:47;18.40;76.00
52787;DHT22;38661;53.152;5.846;2022-07-01T10:58:13;18.40;74.10
52787;DHT22;38661;53.152;5.846;2022-07-01T11:00:47;18.50;73.30
52787;DHT22;38661;53.152;5.846;2022-07-01T11:03:15;18.50;72.90
52787;DHT22;38661;53.152;5.846;2022-07-01T11:05:42;18.40;71.80
52787;DHT22;38661;53.152;5.846;2022-07-01T11:08:09;18.50;71.80
52787;DHT22;38661;53.152;5.846;2022-07-01T11:10:35;18.70;70.60
52787;DHT22;38661;53.152;5.846;2022-07-01T11:13:02;19.00;70.40
52787;DHT22;38661;53.152;5.846;2022-07-01T11:15:29;19.30;69.40
52787;DHT22;38661;53.152;5.846;2022-07-01T11:17:57;19.40;67.80
52787;DHT22;38661;53.152;5.846;2022-07-01T11:20:24;19.50;66.50
52787;DHT22;38661;53.152;5.846;2022-07-01T11:22:50;19.60;66.70
52787;DHT22;38661;53.152;5.846;2022-07-01T11:25:18;19.80;66.90
52787;DHT22;38661;53.152;5.846;2022-07-01T11:27:49;19.70;66.60
52787;DHT22;38661;53.152;5.846;2022-07-01T11:30:17;19.70;66.00
52787;DHT22;38661;53.152;5.846;2022-07-01T11:32:46;19.70;66.50
52787;DHT22;38661;53.152;5.846;2022-07-01T11:35:17;19.50;66.70
52787;DHT22;38661;53.152;5.846;2022-07-01T11:38:13;19.40;67.20
52787;DHT22;38661;53.152;5.846;2022-07-01T11:41:00;19.70;66.80
52787;DHT22;38661;53.152;5.846;2022-07-01T11:43:31;20.00;66.60
52787;DHT22;38661;53.152;5.846;2022-07-01T11:46:01;20.40;66.10
52787;DHT22;38661;53.152;5.846;2022-07-01T11:48:41;20.50;65.40
52787;DHT22;38661;53.152;5.846;2022-07-01T11:51:09;20.50;64.40
52787;DHT22;38661;53.152;5.846;2022-07-01T11:53:35;20.60;63.20
52787;DHT22;38661;53.152;5.846;2022-07-01T11:56:01;20.70;61.40
52787;DHT22;38661;53.152;5.846;2022-07-01T11:58:49;20.80;59.50
52787;DHT22;38661;53.152;5.846;2022-07-01T12:01:27;21.00;58.80
52787;DHT22;38661;53.152;5.846;2022-07-01T12:03:56;21.10;58.70
52787;DHT22;38661;53.152;5.846;2022-07-01T12:06:23;21.20;58.50
52787;DHT22;38661;53.152;5.846;2022-07-01T12:08:50;21.50;57.60
52787;DHT22;38661;53.152;5.846;2022-07-01T12:11:17;21.40;57.00
52787;DHT22;38661;53.152;5.846;2022-07-01T12:13:44;21.20;58.60
52787;DHT22;38661;53.152;5.846;2022-07-01T12:16:12;21.30;59.10
52787;DHT22;38661;53.152;5.846;2022-07-01T12:18:39;21.50;59.50
52787;DHT22;38661;53.152;5.846;2022-07-01T12:21:05;21.60;57.50
52787;DHT22;38661;53.152;5.846;2022-07-01T12:23:31;21.80;56.00
52787;DHT22;38661;53.152;5.846;2022-07-01T12:26:03;21.90;54.30
52787;DHT22;38661;53.152;5.846;2022-07-01T12:28:38;22.00;55.00
52787;DHT22;38661;53.152;5.846;2022-07-01T12:31:12;21.90;54.10
52787;DHT22;38661;53.152;5.846;2022-07-01T12:33:39;22.00;53.40
52787;DHT22;38661;53.152;5.846;2022-07-01T12:36:06;21.90;54.80
52787;DHT22;38661;53.152;5.846;2022-07-01T12:38:33;21.80;54.10
52787;DHT22;38661;53.152;5.846;2022-07-01T12:40:59;21.70;54.20
52787;DHT22;38661;53.152;5.846;2022-07-01T12:43:32;21.60;54.10
52787;DHT22;38661;53.152;5.846;2022-07-01T12:46:03;21.50;55.00
52787;DHT22;38661;53.152;5.846;2022-07-01T12:48:29;21.10;56.40
52787;DHT22;38661;53.152;5.846;2022-07-01T12:51:14;20.90;56.70
52787;DHT22;38661;53.152;5.846;2022-07-01T12:53:41;20.60;57.90
52787;DHT22;38661;53.152;5.846;2022-07-01T12:56:07;20.40;60.30
52787;DHT22;38661;53.152;5.846;2022-07-01T12:58:33;19.80;65.30
52787;DHT22;38661;53.152;5.846;2022-07-01T13:00:59;19.40;67.10
52787;DHT22;38661;53.152;5.846;2022-07-01T13:03:26;19.10;68.10
52787;DHT22;38661;53.152;5.846;2022-07-01T13:05:54;19.00;68.70
52787;DHT22;38661;53.152;5.846;2022-07-01T13:08:20;19.20;69.00
52787;DHT22;38661;53.152;5.846;2022-07-01T13:10:47;19.30;69.30
52787;DHT22;38661;53.152;5.846;2022-07-01T13:13:14;19.50;68.50
52787;DHT22;38661;53.152;5.846;2022-07-01T13:15:41;19.70;67.70
52787;DHT22;38661;53.152;5.846;2022-07-01T13:18:07;19.80;67.70
52787;DHT22;38661;53.152;5.846;2022-07-01T13:20:34;20.00;67.30
52787;DHT22;38661;53.152;5.846;2022-07-01T13:22:59;20.10;66.60
52787;DHT22;38661;53.152;5.846;2022-07-01T13:25:25;20.20;65.50
52787;DHT22;38661;53.152;5.846;2022-07-01T13:27:51;20.40;65.30
52787;DHT22;38661;53.152;5.846;2022-07-01T13:30:18;20.70;64.30
52787;DHT22;38661;53.152;5.846;2022-07-01T13:32:44;21.00;63.40
52787;DHT22;38661;53.152;5.846;2022-07-01T13:35:11;21.20;62.80
52787;DHT22;38661;53.152;5.846;2022-07-01T13:37:38;21.20;61.10
52787;DHT22;38661;53.152;5.846;2022-07-01T13:40:04;21.20;60.90
52787;DHT22;38661;53.152;5.846;2022-07-01T13:42:30;21.20;59.20
52787;DHT22;38661;53.152;5.846;2022-07-01T13:44:56;21.20;59.50
52787;DHT22;38661;53.152;5.846;2022-07-01T13:47:23;21.20;59.40
52787;DHT22;38661;53.152;5.846;2022-07-01T13:49:49;21.30;60.40
52787;DHT22;38661;53.152;5.846;2022-07-01T13:52:14;21.40;58.50
52787;DHT22;38661;53.152;5.846;2022-07-01T13:54:41;21.60;55.90
52787;DHT22;38661;53.152;5.846;2022-07-01T13:57:07;21.90;56.20
52787;DHT22;38661;53.152;5.846;2022-07-01T13:59:33;21.90;55.10
52787;DHT22;38661;53.152;5.846;2022-07-01T14:01:59;21.90;56.80
52787;DHT22;38661;53.152;5.846;2022-07-01T14:04:24;22.20;55.60
52787;DHT22;38661;53.152;5.846;2022-07-01T14:06:50;22.10;54.70
52787;DHT22;38661;53.152;5.846;2022-07-01T14:09:16;22.20;54.20
52787;DHT22;38661;53.152;5.846;2022-07-01T14:11:42;22.30;54.80
52787;DHT22;38661;53.152;5.846;2022-07-01T14:14:08;22.40;55.20
52787;DHT22;38661;53.152;5.846;2022-07-01T14:16:33;22.40;55.30
52787;DHT22;38661;53.152;5.846;2022-07-01T14:18:59;22.50;55.30
52787;DHT22;38661;53.152;5.846;2022-07-01T14:21:25;22.40;52.80
52787;DHT22;38661;53.152;5.846;2022-07-01T14:23:51;22.40;53.80
52787;DHT22;38661;53.152;5.846;2022-07-01T14:26:17;22.50;53.80
52787;DHT22;38661;53.152;5.846;2022-07-01T14:28:42;22.50;52.20
52787;DHT22;38661;53.152;5.846;2022-07-01T14:31:08;22.70;51.30
52787;DHT22;38661;53.152;5.846;2022-07-01T14:33:34;22.70;51.30
52787;DHT22;38661;53.152;5.846;2022-07-01T14:36:00;22.80;51.20
52787;DHT22;38661;53.152;5.846;2022-07-01T14:38:26;22.50;52.70
52787;DHT22;38661;53.152;5.846;2022-07-01T14:40:52;22.40;53.60
52787;DHT22;38661;53.152;5.846;2022-07-01T14:43:18;22.40;53.10
52787;DHT22;38661;53.152;5.846;2022-07-01T14:45:44;22.40;52.80
52787;DHT22;38661;53.152;5.846;2022-07-01T14:48:10;22.40;51.80
52787;DHT22;38661;53.152;5.846;2022-07-01T14:50:36;22.40;52.50
52787;DHT22;38661;53.152;5.846;2022-07-01T14:53:03;22.50;53.70
52787;DHT22;38661;53.152;5.846;2022-07-01T14:55:29;22.40;52.80
52787;DHT22;38661;53.152;5.846;2022-07-01T14:57:55;22.20;53.00
52787;DHT22;38661;53.152;5.846;2022-07-01T15:00:21;22.40;53.10
52787;DHT22;38661;53.152;5.846;2022-07-01T15:02:48;22.40;53.00
52787;DHT22;38661;53.152;5.846;2022-07-01T15:05:14;22.60;52.90
52787;DHT22;38661;53.152;5.846;2022-07-01T15:07:41;22.50;52.70
52787;DHT22;38661;53.152;5.846;2022-07-01T15:10:07;22.50;51.40
52787;DHT22;38661;53.152;5.846;2022-07-01T15:12:33;22.50;52.50
52787;DHT22;38661;53.152;5.846;2022-07-01T15:14:59;22.30;52.90
52787;DHT22;38661;53.152;5.846;2022-07-01T15:17:25;22.40;53.90
52787;DHT22;38661;53.152;5.846;2022-07-01T15:19:51;22.20;52.80
52787;DHT22;38661;53.152;5.846;2022-07-01T15:22:17;22.00;53.70
52787;DHT22;38661;53.152;5.846;2022-07-01T15:24:43;21.90;54.10
52787;DHT22;38661;53.152;5.846;2022-07-01T15:27:09;21.90;53.50
52787;DHT22;38661;53.152;5.846;2022-07-01T15:29:36;22.00;53.40
52787;DHT22;38661;53.152;5.846;2022-07-01T15:32:02;22.00;53.70
52787;DHT22;38661;53.152;5.846;2022-07-01T15:34:28;22.00;53.60
52787;DHT22;38661;53.152;5.846;2022-07-01T15:36:53;21.90;53.40
52787;DHT22;38661;53.152;5.846;2022-07-01T15:39:19;22.00;53.00
52787;DHT22;38661;53.152;5.846;2022-07-01T15:41:45;22.20;52.50
52787;DHT22;38661;53.152;5.846;2022-07-01T15:44:12;22.10;52.90
52787;DHT22;38661;53.152;5.846;2022-07-01T15:46:38;22.20;52.10
52787;DHT22;38661;53.152;5.846;2022-07-01T15:49:04;21.80;53.30
52787;DHT22;38661;53.152;5.846;2022-07-01T15:51:31;21.90;53.20